sensor_id;sensor_type;location;lat;lon;timestamp;pressure;altitude;pressure_sealevel;temperature;humidity
61018;BME280;48171;51.550;5.434;2022-09-09T00:00:22;100786.06;;;15.11;91.62
61018;BME280;48171;51.550;5.434;2022-09-09T00:03:04;100786.94;;;15.10;91.77
61018;BME280;48171;51.550;5.434;2022-09-09T00:05:44;100779.94;;;15.07;91.87
61018;BME280;48171;51.550;5.434;2022-09-09T00:08:22;100784.41;;;15.05;92.36
61018;BME280;48171;51.550;5.434;2022-09-09T00:10:58;100778.31;;;15.02;91.54
61018;BME280;48171;51.550;5.434;2022-09-09T00:13:34;100782.78;;;14.99;92.09
61018;BME280;48171;51.550;5.434;2022-09-09T00:16:19;100781.09;;;14.97;92.31
61018;BME280;48171;51.550;5.434;2022-09-09T00:21:37;100771.50;;;14.90;92.58
61018;BME280;48171;51.550;5.434;2022-09-09T00:24:23;100767.16;;;14.87;92.38
61018;BME280;48171;51.550;5.434;2022-09-09T00:26:53;100769.88;;;14.84;92.26
61018;BME280;48171;51.550;5.434;2022-09-09T00:29:35;100774.28;;;14.85;92.65
61018;BME280;48171;51.550;5.434;2022-09-09T00:32:16;100766.34;;;14.84;92.53
61018;BME280;48171;51.550;5.434;2022-09-09T00:34:49;100770.84;;;14.82;92.83
61018;BME280;48171;51.550;5.434;2022-09-09T00:37:16;100770.97;;;14.77;92.33
61018;BME280;48171;51.550;5.434;2022-09-09T00:39:45;100771.84;;;14.76;93.29
61018;BME280;48171;51.550;5.434;2022-09-09T00:42:16;100762.94;;;14.78;93.00
61018;BME280;48171;51.550;5.434;2022-09-09T00:44:51;100762.06;;;14.78;92.78
61018;BME280;48171;51.550;5.434;2022-09-09T00:55:34;100739.25;;;14.69;93.08
61018;BME280;48171;51.550;5.434;2022-09-09T00:58:06;100742.72;;;14.71;92.63
61018;BME280;48171;51.550;5.434;2022-09-09T01:00:44;100750.69;;;14.73;92.79
61018;BME280;48171;51.550;5.434;2022-09-09T01:03:22;100750.78;;;14.68;92.93
61018;BME280;48171;51.550;5.434;2022-09-09T01:06:14;100747.22;;;14.69;93.38
61018;BME280;48171;51.550;5.434;2022-09-09T01:11:41;100749.06;;;14.66;92.91
61018;BME280;48171;51.550;5.434;2022-09-09T01:22:44;100745.72;;;14.59;93.50
61018;BME280;48171;51.550;5.434;2022-09-09T01:27:46;100736.88;;;14.58;93.66
61018;BME280;48171;51.550;5.434;2022-09-09T01:30:15;100744.88;;;14.55;93.48
61018;BME280;48171;51.550;5.434;2022-09-09T01:32:44;100742.22;;;14.57;93.29
61018;BME280;48171;51.550;5.434;2022-09-09T01:35:30;100737.72;;;14.59;93.25
61018;BME280;48171;51.550;5.434;2022-09-09T01:37:57;100738.69;;;14.56;92.77
61018;BME280;48171;51.550;5.434;2022-09-09T01:40:24;100736.03;;;14.56;92.76
61018;BME280;48171;51.550;5.434;2022-09-09T01:42:50;100732.47;;;14.56;93.22
61018;BME280;48171;51.550;5.434;2022-09-09T01:45:15;100727.22;;;14.53;93.03
61018;BME280;48171;51.550;5.434;2022-09-09T01:47:41;100724.56;;;14.53;93.30
61018;BME280;48171;51.550;5.434;2022-09-09T01:50:10;100730.84;;;14.50;93.95
61018;BME280;48171;51.550;5.434;2022-09-09T01:52:37;100736.16;;;14.50;93.50
61018;BME280;48171;51.550;5.434;2022-09-09T01:55:03;100723.78;;;14.48;93.69
61018;BME280;48171;51.550;5.434;2022-09-09T02:00:19;100719.44;;;14.45;94.02
61018;BME280;48171;51.550;5.434;2022-09-09T02:03:00;100720.34;;;14.44;94.39
61018;BME280;48171;51.550;5.434;2022-09-09T02:05:35;100723.91;;;14.43;nan
61018;BME280;48171;51.550;5.434;2022-09-09T02:08:14;100713.31;;;14.41;94.11
61018;BME280;48171;51.550;5.434;2022-09-09T02:10:47;100714.09;;;14.45;93.53
61018;BME280;48171;51.550;5.434;2022-09-09T02:13:20;100715.91;;;14.45;93.23
61018;BME280;48171;51.550;5.434;2022-09-09T02:15:56;100708.81;;;14.44;92.54
61018;BME280;48171;51.550;5.434;2022-09-09T02:18:50;100708.81;;;14.44;92.56
61018;BME280;48171;51.550;5.434;2022-09-09T02:21:17;100706.28;;;14.39;92.56
61018;BME280;48171;51.550;5.434;2022-09-09T02:23:43;100705.44;;;14.37;92.70
61018;BME280;48171;51.550;5.434;2022-09-09T02:26:11;100712.59;;;14.35;93.14
61018;BME280;48171;51.550;5.434;2022-09-09T02:28:39;100711.75;;;14.33;94.01
61018;BME280;48171;51.550;5.434;2022-09-09T02:31:05;100703.84;;;14.30;94.34
61018;BME280;48171;51.550;5.434;2022-09-09T02:33:37;100705.59;;;14.31;94.20
61018;BME280;48171;51.550;5.434;2022-09-09T02:36:04;100699.47;;;14.29;94.36
61018;BME280;48171;51.550;5.434;2022-09-09T02:38:35;100703.91;;;14.28;94.56
61018;BME280;48171;51.550;5.434;2022-09-09T02:41:03;100700.34;;;14.28;94.55
61018;BME280;48171;51.550;5.434;2022-09-09T02:43:33;100696.84;;;14.27;95.15
61018;BME280;48171;51.550;5.434;2022-09-09T02:46:24;100703.78;;;14.33;94.66
61018;BME280;48171;51.550;5.434;2022-09-09T02:49:00;100699.47;;;14.29;94.71
61018;BME280;48171;51.550;5.434;2022-09-09T02:56:39;100705.75;;;14.25;95.31
61018;BME280;48171;51.550;5.434;2022-09-09T02:59:05;100706.66;;;14.24;95.20
61018;BME280;48171;51.550;5.434;2022-09-09T03:01:31;100708.44;;;14.23;94.93
61018;BME280;48171;51.550;5.434;2022-09-09T03:03:56;100708.44;;;14.23;94.91
61018;BME280;48171;51.550;5.434;2022-09-09T03:06:22;100710.28;;;14.21;95.22
61018;BME280;48171;51.550;5.434;2022-09-09T03:08:47;100711.13;;;14.21;94.65
61018;BME280;48171;51.550;5.434;2022-09-09T03:11:14;100708.53;;;14.20;95.44
61018;BME280;48171;51.550;5.434;2022-09-09T03:13:39;100704.13;;;14.19;95.11
61018;BME280;48171;51.550;5.434;2022-09-09T03:16:04;100708.59;;;14.17;94.78
61018;BME280;48171;51.550;5.434;2022-09-09T03:18:30;100713.91;;;14.17;95.11
61018;BME280;48171;51.550;5.434;2022-09-09T03:20:57;100711.22;;;14.18;95.66
61018;BME280;48171;51.550;5.434;2022-09-09T03:23:24;100721.84;;;14.18;95.65
61018;BME280;48171;51.550;5.434;2022-09-09T03:25:50;100724.53;;;14.17;96.24
61018;BME280;48171;51.550;5.434;2022-09-09T03:28:16;100726.31;;;14.18;96.76
61018;BME280;48171;51.550;5.434;2022-09-09T03:30:41;100718.34;;;14.18;96.79
61018;BME280;48171;51.550;5.434;2022-09-09T03:33:07;100717.41;;;14.19;96.96
61018;BME280;48171;51.550;5.434;2022-09-09T03:35:32;100713.84;;;14.20;97.04
61018;BME280;48171;51.550;5.434;2022-09-09T03:37:57;100712.09;;;14.19;96.93
61018;BME280;48171;51.550;5.434;2022-09-09T03:40:22;100712.09;;;14.19;97.11
61018;BME280;48171;51.550;5.434;2022-09-09T03:42:48;100705.91;;;14.18;97.28
61018;BME280;48171;51.550;5.434;2022-09-09T03:45:13;100718.34;;;14.18;97.28
61018;BME280;48171;51.550;5.434;2022-09-09T03:47:39;100708.59;;;14.17;97.61
61018;BME280;48171;51.550;5.434;2022-09-09T03:50:06;100712.97;;;14.19;97.63
61018;BME280;48171;51.550;5.434;2022-09-09T03:52:37;100704.94;;;14.21;97.78
61018;BME280;48171;51.550;5.434;2022-09-09T03:55:03;100712.94;;;14.21;97.56
61018;BME280;48171;51.550;5.434;2022-09-09T03:57:29;100704.09;;;14.20;97.23
61018;BME280;48171;51.550;5.434;2022-09-09T03:59:55;100705.81;;;14.21;97.50
61018;BME280;48171;51.550;5.434;2022-09-09T04:02:20;100706.72;;;14.22;97.53
61018;BME280;48171;51.550;5.434;2022-09-09T04:04:46;100700.50;;;14.21;97.85
61018;BME280;48171;51.550;5.434;2022-09-09T04:07:11;100701.41;;;14.22;98.06
61018;BME280;48171;51.550;5.434;2022-09-09T04:09:36;100705.75;;;14.25;97.72
61018;BME280;48171;51.550;5.434;2022-09-09T04:12:02;100703.09;;;14.25;97.79
61018;BME280;48171;51.550;5.434;2022-09-09T04:14:27;100701.28;;;14.27;97.47
61018;BME280;48171;51.550;5.434;2022-09-09T04:16:54;100695.13;;;14.25;97.86
61018;BME280;48171;51.550;5.434;2022-09-09T04:19:20;100693.38;;;14.24;98.00
61018;BME280;48171;51.550;5.434;2022-09-09T04:21:45;100699.63;;;14.23;98.40
61018;BME280;48171;51.550;5.434;2022-09-09T04:24:10;100691.63;;;14.23;98.92
61018;BME280;48171;51.550;5.434;2022-09-09T04:26:36;100689.84;;;14.23;98.83
61018;BME280;48171;51.550;5.434;2022-09-09T04:29:03;100688.97;;;14.23;98.90
61018;BME280;48171;51.550;5.434;2022-09-09T04:31:29;100692.53;;;14.21;99.11
61018;BME280;48171;51.550;5.434;2022-09-09T04:33:54;100688.03;;;14.25;99.32
61018;BME280;48171;51.550;5.434;2022-09-09T04:36:19;100693.31;;;14.27;99.39
61018;BME280;48171;51.550;5.434;2022-09-09T04:38:45;100688.84;;;14.27;99.25
61018;BME280;48171;51.550;5.434;2022-09-09T04:41:11;100681.72;;;14.29;98.81
61018;BME280;48171;51.550;5.434;2022-09-09T04:43:38;100690.63;;;14.28;99.05
61018;BME280;48171;51.550;5.434;2022-09-09T04:46:05;100694.16;;;14.29;99.05
61018;BME280;48171;51.550;5.434;2022-09-09T04:48:30;100685.31;;;14.28;98.71
61018;BME280;48171;51.550;5.434;2022-09-09T04:51:06;100685.31;;;14.28;98.51
61018;BME280;48171;51.550;5.434;2022-09-09T04:53:32;100682.66;;;14.28;98.47
61018;BME280;48171;51.550;5.434;2022-09-09T04:58:32;100674.69;;;14.28;99.07
61018;BME280;48171;51.550;5.434;2022-09-09T05:01:11;100669.34;;;14.28;98.76
61018;BME280;48171;51.550;5.434;2022-09-09T05:03:37;100676.44;;;14.28;98.76
61018;BME280;48171;51.550;5.434;2022-09-09T05:06:10;100680.84;;;14.29;99.43
61018;BME280;48171;51.550;5.434;2022-09-09T05:08:39;100679.06;;;14.29;99.88
61018;BME280;48171;51.550;5.434;2022-09-09T05:11:18;100680.75;;;14.32;100.00
61018;BME280;48171;51.550;5.434;2022-09-09T05:13:44;100678.09;;;14.32;99.48
61018;BME280;48171;51.550;5.434;2022-09-09T05:16:10;100673.63;;;14.34;99.31
61018;BME280;48171;51.550;5.434;2022-09-09T05:18:37;100676.28;;;14.34;99.67
61018;BME280;48171;51.550;5.434;2022-09-09T05:21:02;100673.63;;;14.34;99.38
61018;BME280;48171;51.550;5.434;2022-09-09T05:23:27;100678.91;;;14.35;99.66
61018;BME280;48171;51.550;5.434;2022-09-09T05:25:57;100677.94;;;14.38;99.78
61018;BME280;48171;51.550;5.434;2022-09-09T05:28:23;100671.56;;;14.45;98.45
61018;BME280;48171;51.550;5.434;2022-09-09T05:30:59;100670.81;;;14.40;99.23
61018;BME280;48171;51.550;5.434;2022-09-09T05:33:33;100669.09;;;14.37;99.46
61018;BME280;48171;51.550;5.434;2022-09-09T05:36:02;100670.88;;;14.38;99.45
61018;BME280;48171;51.550;5.434;2022-09-09T05:38:28;100667.31;;;14.38;99.56
61018;BME280;48171;51.550;5.434;2022-09-09T05:40:54;100674.44;;;14.37;99.55
61018;BME280;48171;51.550;5.434;2022-09-09T05:43:22;100672.63;;;14.38;99.64
61018;BME280;48171;51.550;5.434;2022-09-09T05:45:48;100666.41;;;14.39;99.73
61018;BME280;48171;51.550;5.434;2022-09-09T05:48:14;100677.06;;;14.39;100.00
61018;BME280;48171;51.550;5.434;2022-09-09T05:50:41;100678.78;;;14.40;100.00
61018;BME280;48171;51.550;5.434;2022-09-09T05:53:07;100682.25;;;14.44;100.00
61018;BME280;48171;51.550;5.434;2022-09-09T05:55:33;100683.91;;;14.48;100.00
61018;BME280;48171;51.550;5.434;2022-09-09T05:57:58;100680.25;;;14.52;100.00
61018;BME280;48171;51.550;5.434;2022-09-09T06:00:23;100690.00;;;14.53;100.00
61018;BME280;48171;51.550;5.434;2022-09-09T06:02:52;100682.00;;;14.54;100.00
61018;BME280;48171;51.550;5.434;2022-09-09T06:05:18;100690.81;;;14.55;100.00
61018;BME280;48171;51.550;5.434;2022-09-09T06:07:43;100679.34;;;14.53;100.00
61018;BME280;48171;51.550;5.434;2022-09-09T06:10:10;100691.78;;;14.52;100.00
61018;BME280;48171;51.550;5.434;2022-09-09T06:12:35;100688.16;;;14.56;100.00
61018;BME280;48171;51.550;5.434;2022-09-09T06:15:01;100687.19;;;14.60;100.00
61018;BME280;48171;51.550;5.434;2022-09-09T06:17:26;100687.94;;;14.64;100.00
61018;BME280;48171;51.550;5.434;2022-09-09T06:19:51;100694.06;;;14.68;100.00
61018;BME280;48171;51.550;5.434;2022-09-09T06:22:17;100694.81;;;14.73;100.00
61018;BME280;48171;51.550;5.434;2022-09-09T06:24:43;100679.63;;;14.76;100.00
61018;BME280;48171;51.550;5.434;2022-09-09T06:27:09;100691.97;;;14.80;100.00
61018;BME280;48171;51.550;5.434;2022-09-09T06:29:35;100680.22;;;14.88;100.00
61018;BME280;48171;51.550;5.434;2022-09-09T06:32:02;100689.88;;;14.92;100.00
61018;BME280;48171;51.550;5.434;2022-09-09T06:34:28;100684.50;;;14.93;100.00
61018;BME280;48171;51.550;5.434;2022-09-09T06:36:53;100686.31;;;14.93;99.72
61018;BME280;48171;51.550;5.434;2022-09-09T06:39:19;100689.00;;;14.91;100.00
61018;BME280;48171;51.550;5.434;2022-09-09T06:41:44;100684.50;;;14.93;100.00
61018;BME280;48171;51.550;5.434;2022-09-09T06:44:09;100687.19;;;14.93;100.00
61018;BME280;48171;51.550;5.434;2022-09-09T06:46:36;100681.72;;;14.98;99.93
61018;BME280;48171;51.550;5.434;2022-09-09T06:49:03;100678.09;;;15.00;99.88
61018;BME280;48171;51.550;5.434;2022-09-09T06:51:30;100686.97;;;15.01;99.65
61018;BME280;48171;51.550;5.434;2022-09-09T06:53:58;100678.09;;;15.00;99.09
61018;BME280;48171;51.550;5.434;2022-09-09T06:56:29;100679.84;;;15.02;99.08
61018;BME280;48171;51.550;5.434;2022-09-09T06:58:57;100683.38;;;15.02;99.34
61018;BME280;48171;51.550;5.434;2022-09-09T07:01:28;100681.53;;;15.04;99.09
61018;BME280;48171;51.550;5.434;2022-09-09T07:03:56;100679.63;;;15.09;99.98
61018;BME280;48171;51.550;5.434;2022-09-09T07:06:29;100689.25;;;15.15;100.00
61018;BME280;48171;51.550;5.434;2022-09-09T07:08:59;100684.69;;;15.18;100.00
61018;BME280;48171;51.550;5.434;2022-09-09T07:11:30;100687.22;;;15.23;99.67
61018;BME280;48171;51.550;5.434;2022-09-09T07:13:57;100676.47;;;15.26;99.76
61018;BME280;48171;51.550;5.434;2022-09-09T07:16:23;100686.09;;;15.32;98.92
61018;BME280;48171;51.550;5.434;2022-09-09T07:18:53;100684.06;;;15.40;99.17
61018;BME280;48171;51.550;5.434;2022-09-09T07:21:22;100682.03;;;15.48;98.81
61018;BME280;48171;51.550;5.434;2022-09-09T07:23:49;100669.34;;;15.58;98.24
61018;BME280;48171;51.550;5.434;2022-09-09T07:26:17;100678.00;;;15.65;97.56
61018;BME280;48171;51.550;5.434;2022-09-09T07:28:45;100676.88;;;15.73;96.68
61018;BME280;48171;51.550;5.434;2022-09-09T07:31:15;100676.53;;;15.84;97.33
61018;BME280;48171;51.550;5.434;2022-09-09T07:33:42;100667.53;;;15.88;95.71
61018;BME280;48171;51.550;5.434;2022-09-09T07:36:19;100669.03;;;15.97;95.93
61018;BME280;48171;51.550;5.434;2022-09-09T07:38:52;100672.50;;;15.99;94.64
61018;BME280;48171;51.550;5.434;2022-09-09T07:43:46;100685.06;;;15.95;94.98
61018;BME280;48171;51.550;5.434;2022-09-09T07:46:13;100684.19;;;15.95;93.38
61018;BME280;48171;51.550;5.434;2022-09-09T07:48:44;100693.03;;;15.95;94.74
61018;BME280;48171;51.550;5.434;2022-09-09T07:51:12;100689.53;;;15.95;94.54
61018;BME280;48171;51.550;5.434;2022-09-09T07:53:43;100676.25;;;15.93;94.80
61018;BME280;48171;51.550;5.434;2022-09-09T07:56:13;100674.31;;;15.98;94.61
61018;BME280;48171;51.550;5.434;2022-09-09T07:58:39;100682.16;;;16.03;94.19
61018;BME280;48171;51.550;5.434;2022-09-09T08:01:07;100679.31;;;16.08;94.72
61018;BME280;48171;51.550;5.434;2022-09-09T08:03:33;100686.25;;;16.13;93.70
61018;BME280;48171;51.550;5.434;2022-09-09T08:06:04;100677.31;;;16.16;92.84
61018;BME280;48171;51.550;5.434;2022-09-09T08:08:29;100684.22;;;16.22;93.80
61018;BME280;48171;51.550;5.434;2022-09-09T08:13:29;100679.44;;;16.31;92.84
61018;BME280;48171;51.550;5.434;2022-09-09T08:16:06;100681.94;;;16.36;92.73
61018;BME280;48171;51.550;5.434;2022-09-09T08:18:32;100682.78;;;16.38;91.59
61018;BME280;48171;51.550;5.434;2022-09-09T08:20:57;100675.53;;;16.42;90.87
61018;BME280;48171;51.550;5.434;2022-09-09T08:23:23;100683.47;;;16.45;89.26
61018;BME280;48171;51.550;5.434;2022-09-09T08:25:48;100686.00;;;16.48;90.19
61018;BME280;48171;51.550;5.434;2022-09-09T08:28:15;100683.19;;;16.52;91.66
61018;BME280;48171;51.550;5.434;2022-09-09T08:30:40;100684.94;;;16.53;90.85
61018;BME280;48171;51.550;5.434;2022-09-09T08:33:06;100688.25;;;16.60;89.43
61018;BME280;48171;51.550;5.434;2022-09-09T08:35:32;100681.97;;;16.63;90.38
61018;BME280;48171;51.550;5.434;2022-09-09T08:37:58;100684.50;;;16.66;89.35
61018;BME280;48171;51.550;5.434;2022-09-09T08:40:29;100694.19;;;16.68;87.87
61018;BME280;48171;51.550;5.434;2022-09-09T08:42:56;100696.97;;;16.65;87.91
61018;BME280;48171;51.550;5.434;2022-09-09T08:45:37;100692.50;;;16.66;87.80
61018;BME280;48171;51.550;5.434;2022-09-09T08:50:58;100697.06;;;16.62;89.24
61018;BME280;48171;51.550;5.434;2022-09-09T08:53:38;100705.06;;;16.62;88.91
61018;BME280;48171;51.550;5.434;2022-09-09T08:56:32;100703.31;;;16.63;88.62
61018;BME280;48171;51.550;5.434;2022-09-09T08:59:00;100709.53;;;16.62;89.18
61018;BME280;48171;51.550;5.434;2022-09-09T09:04:37;100709.25;;;16.71;89.17
61018;BME280;48171;51.550;5.434;2022-09-09T09:09:56;100710.00;;;16.74;87.75
61018;BME280;48171;51.550;5.434;2022-09-09T09:12:26;100720.59;;;16.76;87.42
61018;BME280;48171;51.550;5.434;2022-09-09T09:14:52;100711.75;;;16.75;88.21
61018;BME280;48171;51.550;5.434;2022-09-09T09:17:22;100719.69;;;16.77;87.78
61018;BME280;48171;51.550;5.434;2022-09-09T09:19:49;100711.56;;;16.80;87.75
61018;BME280;48171;51.550;5.434;2022-09-09T09:22:20;100716.81;;;16.85;86.44
61018;BME280;48171;51.550;5.434;2022-09-09T09:27:28;100725.53;;;16.88;85.51
61018;BME280;48171;51.550;5.434;2022-09-09T09:29:56;100726.53;;;16.86;86.28
61018;BME280;48171;51.550;5.434;2022-09-09T09:32:24;100719.38;;;16.86;86.50
61018;BME280;48171;51.550;5.434;2022-09-09T09:34:54;100722.97;;;16.87;86.56
61018;BME280;48171;51.550;5.434;2022-09-09T09:37:31;100726.44;;;16.89;87.45
61018;BME280;48171;51.550;5.434;2022-09-09T09:40:15;100726.06;;;16.99;87.54
61018;BME280;48171;51.550;5.434;2022-09-09T09:42:55;100727.59;;;17.07;87.40
61018;BME280;48171;51.550;5.434;2022-09-09T09:45:43;100721.84;;;17.17;87.61
61018;BME280;48171;51.550;5.434;2022-09-09T09:48:12;100725.34;;;17.19;85.80
61018;BME280;48171;51.550;5.434;2022-09-09T09:53:32;100716.84;;;17.08;88.00
61018;BME280;48171;51.550;5.434;2022-09-09T09:56:03;100709.03;;;17.02;88.19
61018;BME280;48171;51.550;5.434;2022-09-09T09:58:32;100717.22;;;16.97;87.33
61018;BME280;48171;51.550;5.434;2022-09-09T10:00:59;100716.47;;;16.94;87.34
61018;BME280;48171;51.550;5.434;2022-09-09T10:03:33;100721.09;;;16.89;87.52
61018;BME280;48171;51.550;5.434;2022-09-09T10:06:03;100729.31;;;16.83;87.96
61018;BME280;48171;51.550;5.434;2022-09-09T10:08:28;100718.72;;;16.79;89.10
61018;BME280;48171;51.550;5.434;2022-09-09T10:16:42;100726.13;;;16.71;91.15
61018;BME280;48171;51.550;5.434;2022-09-09T10:19:13;100725.28;;;16.69;91.09
61018;BME280;48171;51.550;5.434;2022-09-09T10:31:14;100732.22;;;17.02;91.74
61018;BME280;48171;51.550;5.434;2022-09-09T10:36:25;100735.56;;;16.82;90.86
61018;BME280;48171;51.550;5.434;2022-09-09T10:39:06;100735.72;;;16.77;91.22
61018;BME280;48171;51.550;5.434;2022-09-09T10:42:08;100736.63;;;16.76;91.75
61018;BME280;48171;51.550;5.434;2022-09-09T10:52:37;100735.16;;;16.67;92.17
61018;BME280;48171;51.550;5.434;2022-09-09T10:57:43;100729.59;;;16.73;93.44
61018;BME280;48171;51.550;5.434;2022-09-09T11:00:19;100731.09;;;16.82;94.08
61018;BME280;48171;51.550;5.434;2022-09-09T11:02:48;100727.41;;;16.86;92.78
61018;BME280;48171;51.550;5.434;2022-09-09T11:05:31;100724.59;;;16.91;93.10
61018;BME280;48171;51.550;5.434;2022-09-09T11:08:10;100731.00;;;16.85;91.22
61018;BME280;48171;51.550;5.434;2022-09-09T11:10:40;100737.34;;;16.83;92.84
61018;BME280;48171;51.550;5.434;2022-09-09T11:13:15;100733.72;;;16.84;93.29
61018;BME280;48171;51.550;5.434;2022-09-09T11:15:46;100728.53;;;16.79;93.16
61018;BME280;48171;51.550;5.434;2022-09-09T11:18:19;100726.72;;;16.79;92.53
61018;BME280;48171;51.550;5.434;2022-09-09T11:20:46;100728.47;;;16.80;92.65
61018;BME280;48171;51.550;5.434;2022-09-09T11:23:20;100728.38;;;16.84;92.13
61018;BME280;48171;51.550;5.434;2022-09-09T11:25:59;100729.97;;;16.89;93.40
61018;BME280;48171;51.550;5.434;2022-09-09T11:31:44;100728.13;;;16.91;92.84
61018;BME280;48171;51.550;5.434;2022-09-09T11:37:11;100723.69;;;16.90;93.28
61018;BME280;48171;51.550;5.434;2022-09-09T11:40:43;100727.19;;;16.92;92.89
61018;BME280;48171;51.550;5.434;2022-09-09T11:43:02;100721.75;;;16.95;92.89
61018;BME280;48171;51.550;5.434;2022-09-09T11:45:29;100725.47;;;16.91;92.11
61018;BME280;48171;51.550;5.434;2022-09-09T11:48:00;100721.09;;;16.89;91.68
61018;BME280;48171;51.550;5.434;2022-09-09T11:52:51;100728.28;;;16.87;91.35
61018;BME280;48171;51.550;5.434;2022-09-09T11:55:30;100722.84;;;16.90;91.77
61018;BME280;48171;51.550;5.434;2022-09-09T12:00:41;100728.81;;;16.96;92.19
61018;BME280;48171;51.550;5.434;2022-09-09T12:06:27;100723.88;;;17.11;92.01
61018;BME280;48171;51.550;5.434;2022-09-09T12:08:56;100718.13;;;17.22;92.65
61018;BME280;48171;51.550;5.434;2022-09-09T12:11:28;100716.94;;;17.30;92.47
61018;BME280;48171;51.550;5.434;2022-09-09T12:13:58;100718.50;;;17.36;92.34
61018;BME280;48171;51.550;5.434;2022-09-09T12:16:36;100728.66;;;17.50;91.88
61018;BME280;48171;51.550;5.434;2022-09-09T12:21:53;100715.94;;;17.80;91.72
61018;BME280;48171;51.550;5.434;2022-09-09T12:24:27;100715.00;;;17.81;89.65
61018;BME280;48171;51.550;5.434;2022-09-09T12:27:06;100716.13;;;17.75;87.32
61018;BME280;48171;51.550;5.434;2022-09-09T12:29:47;100709.25;;;17.68;88.00
61018;BME280;48171;51.550;5.434;2022-09-09T12:32:22;100717.22;;;17.70;89.20
61018;BME280;48171;51.550;5.434;2022-09-09T12:39:58;100712.19;;;17.86;87.73
61018;BME280;48171;51.550;5.434;2022-09-09T12:42:25;100712.19;;;17.86;86.95
61018;BME280;48171;51.550;5.434;2022-09-09T12:44:52;100707.81;;;17.83;87.18
61018;BME280;48171;51.550;5.434;2022-09-09T12:47:21;100710.50;;;17.83;87.44
61018;BME280;48171;51.550;5.434;2022-09-09T12:49:48;100707.88;;;17.82;88.54
61018;BME280;48171;51.550;5.434;2022-09-09T12:52:28;100711.69;;;17.74;87.72
61018;BME280;48171;51.550;5.434;2022-09-09T12:54:55;100712.94;;;17.66;88.00
61018;BME280;48171;51.550;5.434;2022-09-09T12:57:23;100711.66;;;17.52;88.71
61018;BME280;48171;51.550;5.434;2022-09-09T12:59:52;100710.22;;;17.44;89.78
61018;BME280;48171;51.550;5.434;2022-09-09T13:02:28;100697.00;;;17.39;91.35
61018;BME280;48171;51.550;5.434;2022-09-09T13:05:06;100715.94;;;17.33;92.44
61018;BME280;48171;51.550;5.434;2022-09-09T13:07:32;100717.09;;;17.26;93.01
61018;BME280;48171;51.550;5.434;2022-09-09T13:09:57;100712.63;;;17.26;94.16
61018;BME280;48171;51.550;5.434;2022-09-09T13:12:22;100698.81;;;17.38;94.49
61018;BME280;48171;51.550;5.434;2022-09-09T13:14:50;100708.06;;;17.53;94.30
61018;BME280;48171;51.550;5.434;2022-09-09T13:17:26;100695.03;;;17.68;93.69
61018;BME280;48171;51.550;5.434;2022-09-09T13:19:57;100698.97;;;17.81;95.05
61018;BME280;48171;51.550;5.434;2022-09-09T13:22:35;100694.59;;;18.02;94.87
61018;BME280;48171;51.550;5.434;2022-09-09T13:27:38;100695.41;;;18.26;94.08
61018;BME280;48171;51.550;5.434;2022-09-09T13:30:24;100692.28;;;18.37;93.71
61018;BME280;48171;51.550;5.434;2022-09-09T13:33:06;100687.72;;;18.39;93.25
61018;BME280;48171;51.550;5.434;2022-09-09T13:35:32;100693.88;;;18.41;93.64
61018;BME280;48171;51.550;5.434;2022-09-09T13:37:59;100685.91;;;18.39;93.26
61018;BME280;48171;51.550;5.434;2022-09-09T13:40:31;100687.69;;;18.41;94.41
61018;BME280;48171;51.550;5.434;2022-09-09T13:42:57;100686.66;;;18.43;94.03
61018;BME280;48171;51.550;5.434;2022-09-09T13:45:25;100696.56;;;18.41;92.12
61018;BME280;48171;51.550;5.434;2022-09-09T13:47:54;100695.81;;;18.37;92.33
61018;BME280;48171;51.550;5.434;2022-09-09T13:50:23;100699.50;;;18.35;91.69
61018;BME280;48171;51.550;5.434;2022-09-09T13:52:51;100692.34;;;18.35;91.77
61018;BME280;48171;51.550;5.434;2022-09-09T13:55:19;100700.50;;;18.32;90.74
61018;BME280;48171;51.550;5.434;2022-09-09T13:57:54;100697.06;;;18.29;90.60
61018;BME280;48171;51.550;5.434;2022-09-09T14:00:21;100690.16;;;18.23;89.87
61018;BME280;48171;51.550;5.434;2022-09-09T14:02:47;100691.28;;;18.17;90.97
61018;BME280;48171;51.550;5.434;2022-09-09T14:05:13;100685.13;;;18.15;91.41
61018;BME280;48171;51.550;5.434;2022-09-09T14:07:39;100681.28;;;18.23;91.73
61018;BME280;48171;51.550;5.434;2022-09-09T14:10:06;100681.94;;;18.28;91.52
61018;BME280;48171;51.550;5.434;2022-09-09T14:12:32;100680.16;;;18.28;90.55
61018;BME280;48171;51.550;5.434;2022-09-09T14:14:58;100682.69;;;18.31;90.71
61018;BME280;48171;51.550;5.434;2022-09-09T14:17:25;100679.97;;;18.33;91.10
61018;BME280;48171;51.550;5.434;2022-09-09T14:19:54;100678.03;;;18.36;90.89
61018;BME280;48171;51.550;5.434;2022-09-09T14:22:20;100676.13;;;18.40;90.17
61018;BME280;48171;51.550;5.434;2022-09-09T14:24:45;100677.91;;;18.39;90.41
61018;BME280;48171;51.550;5.434;2022-09-09T14:27:10;100681.47;;;18.40;89.82
61018;BME280;48171;51.550;5.434;2022-09-09T14:29:35;100683.25;;;18.39;89.08
61018;BME280;48171;51.550;5.434;2022-09-09T14:32:01;100677.78;;;18.43;89.92
61018;BME280;48171;51.550;5.434;2022-09-09T14:34:26;100677.78;;;18.43;88.97
61018;BME280;48171;51.550;5.434;2022-09-09T14:36:51;100673.22;;;18.45;87.88
61018;BME280;48171;51.550;5.434;2022-09-09T14:39:17;100675.97;;;18.43;88.09
61018;BME280;48171;51.550;5.434;2022-09-09T14:41:42;100668.00;;;18.42;87.03
61018;BME280;48171;51.550;5.434;2022-09-09T14:44:08;100675.97;;;18.43;86.57
61018;BME280;48171;51.550;5.434;2022-09-09T14:46:33;100670.63;;;18.43;86.79
61018;BME280;48171;51.550;5.434;2022-09-09T14:48:59;100668.91;;;18.42;86.74
61018;BME280;48171;51.550;5.434;2022-09-09T14:51:25;100664.53;;;18.39;87.46